<?xml version='1.0' encoding='UTF-8'?><gpx version="1.1" creator="JPX - https://github.com/jenetics/jpx" xmlns="http://www.topografix.com/GPX/1/1"><trk><trkseg><trkpt lat="37.5065117" lon="15.0364317"><ele>191.0</ele><time>2026-05-03T10:38:13.669Z</time></trkpt><trkpt lat="37.5064333" lon="15.036425"><ele>191.0</ele><time>2026-05-03T10:38:15.669Z</time></trkpt><trkpt lat="37.5063317" lon="15.0364267"><ele>191.0</ele><time>2026-05-03T10:38:17.668Z</time></trkpt><trkpt lat="37.5062217" lon="15.0364267"><ele>191.0</ele><time>2026-05-03T10:38:19.669Z</time></trkpt><trkpt lat="37.5061133" lon="15.03641"><ele>191.0</ele><time>2026-05-03T10:38:21.669Z</time></trkpt><trkpt lat="37.5060267" lon="15.0363617"><ele>191.33333333333331</ele><time>2026-05-03T10:38:23.672Z</time></trkpt><trkpt lat="37.5059483" lon="15.0362983"><ele>191.66666666666666</ele><time>2026-05-03T10:38:25.67Z</time></trkpt><trkpt lat="37.50588" lon="15.0362217"><ele>192.0</ele><time>2026-05-03T10:38:27.669Z</time></trkpt><trkpt lat="37.5058383" lon="15.0361133"><ele>192.33333333333331</ele><time>2026-05-03T10:38:29.669Z</time></trkpt><trkpt lat="37.5058183" lon="15.0359983"><ele>192.66666666666666</ele><time>2026-05-03T10:38:31.672Z</time></trkpt><trkpt lat="37.50578" lon="15.0359183"><ele>193.0</ele><time>2026-05-03T10:38:33.668Z</time></trkpt><trkpt lat="37.5056683" lon="15.0358733"><ele>192.99999999999997</ele><time>2026-05-03T10:38:35.67Z</time></trkpt><trkpt lat="37.5055967" lon="15.0358583"><ele>193.0</ele><time>2026-05-03T10:38:36.669Z</time></trkpt><trkpt lat="37.5054867" lon="15.0358617"><ele>193.0</ele><time>2026-05-03T10:38:38.669Z</time></trkpt><trkpt lat="37.5054067" lon="15.0358967"><ele>193.0</ele><time>2026-05-03T10:38:40.671Z</time></trkpt><trkpt lat="37.5053417" lon="15.0359333"><ele>192.99999999999997</ele><time>2026-05-03T10:38:42.673Z</time></trkpt><trkpt lat="37.505275" lon="15.0359417"><ele>193.0</ele><time>2026-05-03T10:38:45.673Z</time></trkpt><trkpt lat="37.5051983" lon="15.03592"><ele>192.16666666666666</ele><time>2026-05-03T10:38:48.67Z</time></trkpt><trkpt lat="37.5051433" lon="15.03587"><ele>191.33333333333331</ele><time>2026-05-03T10:38:50.671Z</time></trkpt><trkpt lat="37.5050767" lon="15.0358183"><ele>190.5</ele><time>2026-05-03T10:38:52.67Z</time></trkpt><trkpt lat="37.5049967" lon="15.035755"><ele>189.66666666666666</ele><time>2026-05-03T10:38:54.672Z</time></trkpt><trkpt lat="37.5049183" lon="15.03569"><ele>188.83333333333331</ele><time>2026-05-03T10:38:56.676Z</time></trkpt><trkpt lat="37.5048367" lon="15.0356233"><ele>188.0</ele><time>2026-05-03T10:38:58.669Z</time></trkpt><trkpt lat="37.5047517" lon="15.0355583"><ele>188.0</ele><time>2026-05-03T10:39:00.669Z</time></trkpt><trkpt lat="37.5046633" lon="15.0355067"><ele>188.0</ele><time>2026-05-03T10:39:02.672Z</time></trkpt><trkpt lat="37.504565" lon="15.0354517"><ele>188.0</ele><time>2026-05-03T10:39:04.671Z</time></trkpt><trkpt lat="37.504475" lon="15.0354117"><ele>188.0</ele><time>2026-05-03T10:39:06.668Z</time></trkpt><trkpt lat="37.504385" lon="15.035395"><ele>188.0</ele><time>2026-05-03T10:39:08.672Z</time></trkpt><trkpt lat="37.5042917" lon="15.0353983"><ele>185.83333333333331</ele><time>2026-05-03T10:39:10.671Z</time></trkpt><trkpt lat="37.5042133" lon="15.035395"><ele>183.66666666666666</ele><time>2026-05-03T10:39:12.673Z</time></trkpt><trkpt lat="37.5041633" lon="15.035465"><ele>181.5</ele><time>2026-05-03T10:39:15.673Z</time></trkpt><trkpt lat="37.5041567" lon="15.0355533"><ele>179.33333333333334</ele><time>2026-05-03T10:39:17.671Z</time></trkpt><trkpt lat="37.5041467" lon="15.0356867"><ele>177.16666666666669</ele><time>2026-05-03T10:39:19.671Z</time></trkpt><trkpt lat="37.5041383" lon="15.0357717"><ele>175.0</ele><time>2026-05-03T10:39:20.671Z</time></trkpt><trkpt lat="37.5041267" lon="15.0358617"><ele>174.57142857142858</ele><time>2026-05-03T10:39:21.67Z</time></trkpt><trkpt lat="37.5041133" lon="15.0359417"><ele>174.14285714285714</ele><time>2026-05-03T10:39:22.67Z</time></trkpt><trkpt lat="37.5040967" lon="15.0360217"><ele>173.71428571428572</ele><time>2026-05-03T10:39:23.671Z</time></trkpt><trkpt lat="37.5040817" lon="15.03611"><ele>173.28571428571428</ele><time>2026-05-03T10:39:24.67Z</time></trkpt><trkpt lat="37.5040683" lon="15.0362033"><ele>172.85714285714286</ele><time>2026-05-03T10:39:25.67Z</time></trkpt><trkpt lat="37.504055" lon="15.036295"><ele>172.42857142857144</ele><time>2026-05-03T10:39:26.671Z</time></trkpt><trkpt lat="37.5040433" lon="15.0363817"><ele>172.0</ele><time>2026-05-03T10:39:27.67Z</time></trkpt><trkpt lat="37.5040267" lon="15.036465"><ele>172.0</ele><time>2026-05-03T10:39:28.669Z</time></trkpt><trkpt lat="37.5040083" lon="15.0365483"><ele>172.0</ele><time>2026-05-03T10:39:29.671Z</time></trkpt><trkpt lat="37.5039867" lon="15.0366333"><ele>172.0</ele><time>2026-05-03T10:39:30.671Z</time></trkpt><trkpt lat="37.5039683" lon="15.0367133"><ele>172.0</ele><time>2026-05-03T10:39:31.672Z</time></trkpt><trkpt lat="37.5039433" lon="15.03686"><ele>172.0</ele><time>2026-05-03T10:39:33.669Z</time></trkpt><trkpt lat="37.503935" lon="15.0370133"><ele>172.0</ele><time>2026-05-03T10:39:35.673Z</time></trkpt><trkpt lat="37.5039417" lon="15.0370967"><ele>171.33333333333334</ele><time>2026-05-03T10:39:36.672Z</time></trkpt><trkpt lat="37.5039517" lon="15.0371917"><ele>170.66666666666669</ele><time>2026-05-03T10:39:37.669Z</time></trkpt><trkpt lat="37.5039683" lon="15.0373"><ele>170.0</ele><time>2026-05-03T10:39:38.673Z</time></trkpt><trkpt lat="37.503985" lon="15.0374133"><ele>169.33333333333334</ele><time>2026-05-03T10:39:39.67Z</time></trkpt><trkpt lat="37.504" lon="15.037525"><ele>168.66666666666666</ele><time>2026-05-03T10:39:40.671Z</time></trkpt><trkpt lat="37.5040133" lon="15.0376283"><ele>168.0</ele><time>2026-05-03T10:39:41.673Z</time></trkpt><trkpt lat="37.5040183" lon="15.03772"><ele>167.4</ele><time>2026-05-03T10:39:42.673Z</time></trkpt><trkpt lat="37.504025" lon="15.037805"><ele>166.8</ele><time>2026-05-03T10:39:43.673Z</time></trkpt><trkpt lat="37.50403" lon="15.03789"><ele>166.2</ele><time>2026-05-03T10:39:44.673Z</time></trkpt><trkpt lat="37.5040367" lon="15.0380417"><ele>165.6</ele><time>2026-05-03T10:39:46.669Z</time></trkpt><trkpt lat="37.50404" lon="15.0381717"><ele>165.0</ele><time>2026-05-03T10:39:48.669Z</time></trkpt><trkpt lat="37.504045" lon="15.0382883"><ele>164.33333333333334</ele><time>2026-05-03T10:39:50.67Z</time></trkpt><trkpt lat="37.504055" lon="15.0383983"><ele>163.66666666666666</ele><time>2026-05-03T10:39:52.67Z</time></trkpt><trkpt lat="37.5040567" lon="15.038505"><ele>163.0</ele><time>2026-05-03T10:39:54.67Z</time></trkpt><trkpt lat="37.50406" lon="15.0386117"><ele>162.33333333333331</ele><time>2026-05-03T10:39:56.67Z</time></trkpt><trkpt lat="37.5040683" lon="15.0387183"><ele>161.66666666666666</ele><time>2026-05-03T10:39:58.67Z</time></trkpt><trkpt lat="37.50407" lon="15.0388183"><ele>161.0</ele><time>2026-05-03T10:40:00.67Z</time></trkpt><trkpt lat="37.5040683" lon="15.0389333"><ele>161.0</ele><time>2026-05-03T10:40:02.671Z</time></trkpt><trkpt lat="37.5040667" lon="15.03906"><ele>161.0</ele><time>2026-05-03T10:40:04.67Z</time></trkpt><trkpt lat="37.5040467" lon="15.0391833"><ele>161.0</ele><time>2026-05-03T10:40:06.67Z</time></trkpt><trkpt lat="37.50402" lon="15.0393033"><ele>161.0</ele><time>2026-05-03T10:40:08.67Z</time></trkpt><trkpt lat="37.5039933" lon="15.0394033"><ele>161.0</ele><time>2026-05-03T10:40:10.669Z</time></trkpt><trkpt lat="37.5039717" lon="15.0395067"><ele>159.16666666666666</ele><time>2026-05-03T10:40:13.671Z</time></trkpt><trkpt lat="37.503955" lon="15.0396133"><ele>157.33333333333331</ele><time>2026-05-03T10:40:16.671Z</time></trkpt><trkpt lat="37.5039383" lon="15.0396983"><ele>155.5</ele><time>2026-05-03T10:40:18.673Z</time></trkpt><trkpt lat="37.5039183" lon="15.0398"><ele>153.66666666666666</ele><time>2026-05-03T10:40:20.671Z</time></trkpt><trkpt lat="37.5038967" lon="15.0399"><ele>151.83333333333334</ele><time>2026-05-03T10:40:22.672Z</time></trkpt><trkpt lat="37.503875" lon="15.039995"><ele>150.0</ele><time>2026-05-03T10:40:24.67Z</time></trkpt><trkpt lat="37.50387" lon="15.0401083"><ele>148.4</ele><time>2026-05-03T10:40:26.671Z</time></trkpt><trkpt lat="37.5038783" lon="15.040255"><ele>146.8</ele><time>2026-05-03T10:40:28.671Z</time></trkpt><trkpt lat="37.5038933" lon="15.0404083"><ele>145.2</ele><time>2026-05-03T10:40:30.675Z</time></trkpt><trkpt lat="37.5039067" lon="15.0405383"><ele>143.6</ele><time>2026-05-03T10:40:32.669Z</time></trkpt><trkpt lat="37.5039233" lon="15.0406467"><ele>142.0</ele><time>2026-05-03T10:40:34.67Z</time></trkpt><trkpt lat="37.503995" lon="15.0406983"><ele>142.0</ele><time>2026-05-03T10:40:37.67Z</time></trkpt><trkpt lat="37.50409" lon="15.04073"><ele>142.0</ele><time>2026-05-03T10:40:40.673Z</time></trkpt><trkpt lat="37.504155" lon="15.0407517"><ele>142.0</ele><time>2026-05-03T10:40:42.67Z</time></trkpt><trkpt lat="37.504225" lon="15.04074"><ele>142.0</ele><time>2026-05-03T10:40:44.765Z</time></trkpt><trkpt lat="37.5042833" lon="15.0406983"><ele>142.0</ele><time>2026-05-03T10:40:46.671Z</time></trkpt><trkpt lat="37.5043533" lon="15.0406267"><ele>142.0</ele><time>2026-05-03T10:40:48.671Z</time></trkpt><trkpt lat="37.5044233" lon="15.0405383"><ele>142.0</ele><time>2026-05-03T10:40:50.672Z</time></trkpt><trkpt lat="37.5044967" lon="15.04045"><ele>142.0</ele><time>2026-05-03T10:40:52.671Z</time></trkpt><trkpt lat="37.5045683" lon="15.0403583"><ele>142.0</ele><time>2026-05-03T10:40:54.671Z</time></trkpt><trkpt lat="37.50464" lon="15.04027"><ele>142.0</ele><time>2026-05-03T10:40:56.67Z</time></trkpt><trkpt lat="37.5047333" lon="15.0401967"><ele>142.0</ele><time>2026-05-03T10:40:58.67Z</time></trkpt><trkpt lat="37.504825" lon="15.0401167"><ele>142.6</ele><time>2026-05-03T10:41:00.671Z</time></trkpt><trkpt lat="37.5049283" lon="15.04002"><ele>143.2</ele><time>2026-05-03T10:41:02.671Z</time></trkpt><trkpt lat="37.5049783" lon="15.03997"><ele>143.8</ele><time>2026-05-03T10:41:03.67Z</time></trkpt><trkpt lat="37.50506" lon="15.0398817"><ele>144.4</ele><time>2026-05-03T10:41:05.671Z</time></trkpt><trkpt lat="37.5051317" lon="15.0397767"><ele>145.0</ele><time>2026-05-03T10:41:07.672Z</time></trkpt><trkpt lat="37.5051933" lon="15.0396483"><ele>145.66666666666669</ele><time>2026-05-03T10:41:09.671Z</time></trkpt><trkpt lat="37.505255" lon="15.039525"><ele>146.33333333333334</ele><time>2026-05-03T10:41:11.673Z</time></trkpt><trkpt lat="37.5052967" lon="15.039465"><ele>147.0</ele><time>2026-05-03T10:41:12.674Z</time></trkpt><trkpt lat="37.5053483" lon="15.0394067"><ele>147.66666666666666</ele><time>2026-05-03T10:41:13.672Z</time></trkpt><trkpt lat="37.50541" lon="15.0393467"><ele>148.33333333333331</ele><time>2026-05-03T10:41:14.672Z</time></trkpt><trkpt lat="37.5054733" lon="15.0392983"><ele>149.0</ele><time>2026-05-03T10:41:15.674Z</time></trkpt><trkpt lat="37.5055367" lon="15.0392617"><ele>149.0</ele><time>2026-05-03T10:41:16.672Z</time></trkpt><trkpt lat="37.50563" lon="15.0391967"><ele>149.0</ele><time>2026-05-03T10:41:18.672Z</time></trkpt><trkpt lat="37.5057" lon="15.039115"><ele>149.0</ele><time>2026-05-03T10:41:20.669Z</time></trkpt><trkpt lat="37.5057717" lon="15.0390617"><ele>149.0</ele><time>2026-05-03T10:41:22.669Z</time></trkpt><trkpt lat="37.5058733" lon="15.0390217"><ele>149.0</ele><time>2026-05-03T10:41:24.674Z</time></trkpt><trkpt lat="37.5059983" lon="15.038965"><ele>150.33333333333331</ele><time>2026-05-03T10:41:26.672Z</time></trkpt><trkpt lat="37.5060617" lon="15.03893"><ele>151.66666666666666</ele><time>2026-05-03T10:41:27.673Z</time></trkpt><trkpt lat="37.5061233" lon="15.038895"><ele>153.0</ele><time>2026-05-03T10:41:28.674Z</time></trkpt><trkpt lat="37.5061883" lon="15.0388617"><ele>154.33333333333334</ele><time>2026-05-03T10:41:29.672Z</time></trkpt><trkpt lat="37.50625" lon="15.0388317"><ele>155.66666666666669</ele><time>2026-05-03T10:41:30.67Z</time></trkpt><trkpt lat="37.506365" lon="15.03878"><ele>157.0</ele><time>2026-05-03T10:41:32.67Z</time></trkpt><trkpt lat="37.5064667" lon="15.0387367"><ele>157.2</ele><time>2026-05-03T10:41:34.67Z</time></trkpt><trkpt lat="37.506555" lon="15.0387017"><ele>157.39999999999998</ele><time>2026-05-03T10:41:36.671Z</time></trkpt><trkpt lat="37.5066583" lon="15.0386717"><ele>157.60000000000002</ele><time>2026-05-03T10:41:38.67Z</time></trkpt><trkpt lat="37.5067583" lon="15.0386583"><ele>157.8</ele><time>2026-05-03T10:41:40.67Z</time></trkpt><trkpt lat="37.506845" lon="15.0386133"><ele>158.0</ele><time>2026-05-03T10:41:42.673Z</time></trkpt><trkpt lat="37.50694" lon="15.0385383"><ele>158.0</ele><time>2026-05-03T10:41:44.671Z</time></trkpt><trkpt lat="37.5070383" lon="15.0384783"><ele>158.0</ele><time>2026-05-03T10:41:46.674Z</time></trkpt><trkpt lat="37.507135" lon="15.0384117"><ele>158.0</ele><time>2026-05-03T10:41:48.67Z</time></trkpt><trkpt lat="37.5072267" lon="15.038315"><ele>158.0</ele><time>2026-05-03T10:41:50.671Z</time></trkpt><trkpt lat="37.5072717" lon="15.0382567"><ele>158.0</ele><time>2026-05-03T10:41:51.67Z</time></trkpt><trkpt lat="37.5073517" lon="15.0381483"><ele>162.75</ele><time>2026-05-03T10:41:53.671Z</time></trkpt><trkpt lat="37.5074133" lon="15.0380383"><ele>167.5</ele><time>2026-05-03T10:41:55.671Z</time></trkpt><trkpt lat="37.5074417" lon="15.0379133"><ele>172.25</ele><time>2026-05-03T10:41:57.67Z</time></trkpt><trkpt lat="37.5074467" lon="15.0377633"><ele>177.0</ele><time>2026-05-03T10:41:59.671Z</time></trkpt><trkpt lat="37.5074283" lon="15.037605"><ele>177.0</ele><time>2026-05-03T10:42:01.669Z</time></trkpt><trkpt lat="37.50741" lon="15.0375217"><ele>177.0</ele><time>2026-05-03T10:42:02.671Z</time></trkpt><trkpt lat="37.5073883" lon="15.0374433"><ele>177.0</ele><time>2026-05-03T10:42:03.67Z</time></trkpt><trkpt lat="37.5073417" lon="15.0373167"><ele>177.0</ele><time>2026-05-03T10:42:05.671Z</time></trkpt><trkpt lat="37.5072983" lon="15.03723"><ele>177.0</ele><time>2026-05-03T10:42:07.671Z</time></trkpt><trkpt lat="37.5072217" lon="15.037165"><ele>177.0</ele><time>2026-05-03T10:42:09.67Z</time></trkpt><trkpt lat="37.5071233" lon="15.03709"><ele>177.0</ele><time>2026-05-03T10:42:11.673Z</time></trkpt><trkpt lat="37.5070467" lon="15.0370083"><ele>177.0</ele><time>2026-05-03T10:42:13.673Z</time></trkpt><trkpt lat="37.5069867" lon="15.0369033"><ele>177.0</ele><time>2026-05-03T10:42:15.672Z</time></trkpt><trkpt lat="37.50695" lon="15.0368333"><ele>177.0</ele><time>2026-05-03T10:42:16.668Z</time></trkpt><trkpt lat="37.5069083" lon="15.0367567"><ele>177.0</ele><time>2026-05-03T10:42:17.669Z</time></trkpt><trkpt lat="37.5068667" lon="15.036685"><ele>177.0</ele><time>2026-05-03T10:42:18.668Z</time></trkpt><trkpt lat="37.506795" lon="15.0365733"><ele>180.5</ele><time>2026-05-03T10:42:20.669Z</time></trkpt><trkpt lat="37.5067083" lon="15.0364867"><ele>184.0</ele><time>2026-05-03T10:42:22.67Z</time></trkpt><trkpt lat="37.5065967" lon="15.0364417"><ele>187.5</ele><time>2026-05-03T10:42:24.669Z</time></trkpt><trkpt lat="37.506475" lon="15.036425"><ele>191.0</ele><time>2026-05-03T10:42:26.67Z</time></trkpt><trkpt lat="37.50635" lon="15.0364317"><ele>191.0</ele><time>2026-05-03T10:42:28.672Z</time></trkpt><trkpt lat="37.5062833" lon="15.0364367"><ele>191.0</ele><time>2026-05-03T10:42:29.673Z</time></trkpt><trkpt lat="37.50616" lon="15.0364317"><ele>191.0</ele><time>2026-05-03T10:42:31.673Z</time></trkpt><trkpt lat="37.50605" lon="15.0363967"><ele>191.0</ele><time>2026-05-03T10:42:33.669Z</time></trkpt><trkpt lat="37.5059583" lon="15.0363333"><ele>191.0</ele><time>2026-05-03T10:42:35.67Z</time></trkpt><trkpt lat="37.5058817" lon="15.0362483"><ele>191.33333333333331</ele><time>2026-05-03T10:42:37.67Z</time></trkpt><trkpt lat="37.505835" lon="15.0361317"><ele>191.66666666666666</ele><time>2026-05-03T10:42:39.669Z</time></trkpt><trkpt lat="37.5058133" lon="15.0360067"><ele>192.0</ele><time>2026-05-03T10:42:41.67Z</time></trkpt><trkpt lat="37.5057733" lon="15.035925"><ele>192.33333333333331</ele><time>2026-05-03T10:42:44.672Z</time></trkpt><trkpt lat="37.505715" lon="15.0358933"><ele>192.66666666666666</ele><time>2026-05-03T10:42:46.671Z</time></trkpt><trkpt lat="37.5056183" lon="15.0358583"><ele>193.0</ele><time>2026-05-03T10:42:48.67Z</time></trkpt><trkpt lat="37.505505" lon="15.0358467"><ele>192.16666666666666</ele><time>2026-05-03T10:42:50.671Z</time></trkpt><trkpt lat="37.5054117" lon="15.0358883"><ele>191.33333333333331</ele><time>2026-05-03T10:42:52.67Z</time></trkpt><trkpt lat="37.5053433" lon="15.0359333"><ele>190.5</ele><time>2026-05-03T10:42:54.669Z</time></trkpt><trkpt lat="37.5052667" lon="15.03595"><ele>189.66666666666666</ele><time>2026-05-03T10:42:57.67Z</time></trkpt><trkpt lat="37.5052" lon="15.035915"><ele>188.83333333333331</ele><time>2026-05-03T10:42:59.67Z</time></trkpt><trkpt lat="37.5051233" lon="15.035865"><ele>188.0</ele><time>2026-05-03T10:43:01.673Z</time></trkpt><trkpt lat="37.5050233" lon="15.0357967"><ele>188.0</ele><time>2026-05-03T10:43:03.669Z</time></trkpt><trkpt lat="37.50497" lon="15.0357533"><ele>188.0</ele><time>2026-05-03T10:43:04.669Z</time></trkpt><trkpt lat="37.5049167" lon="15.03571"><ele>188.0</ele><time>2026-05-03T10:43:05.671Z</time></trkpt><trkpt lat="37.5048217" lon="15.0356283"><ele>188.0</ele><time>2026-05-03T10:43:07.672Z</time></trkpt><trkpt lat="37.5047267" lon="15.0355517"><ele>188.0</ele><time>2026-05-03T10:43:09.671Z</time></trkpt><trkpt lat="37.504625" lon="15.0354933"><ele>185.4</ele><time>2026-05-03T10:43:11.672Z</time></trkpt><trkpt lat="37.504525" lon="15.0354417"><ele>182.8</ele><time>2026-05-03T10:43:13.669Z</time></trkpt><trkpt lat="37.504425" lon="15.0354133"><ele>180.2</ele><time>2026-05-03T10:43:15.669Z</time></trkpt><trkpt lat="37.5043217" lon="15.0354083"><ele>177.6</ele><time>2026-05-03T10:43:17.671Z</time></trkpt><trkpt lat="37.50422" lon="15.0353967"><ele>175.0</ele><time>2026-05-03T10:43:19.67Z</time></trkpt><trkpt lat="37.50415" lon="15.0354283"><ele>175.0</ele><time>2026-05-03T10:43:21.671Z</time></trkpt><trkpt lat="37.5041267" lon="15.0355483"><ele>175.0</ele><time>2026-05-03T10:43:24.67Z</time></trkpt><trkpt lat="37.5041183" lon="15.03569"><ele>175.0</ele><time>2026-05-03T10:43:26.67Z</time></trkpt><trkpt lat="37.5041083" lon="15.0357783"><ele>175.0</ele><time>2026-05-03T10:43:27.67Z</time></trkpt><trkpt lat="37.5040967" lon="15.035875"><ele>175.0</ele><time>2026-05-03T10:43:28.67Z</time></trkpt><trkpt lat="37.5040817" lon="15.0359783"><ele>175.0</ele><time>2026-05-03T10:43:29.671Z</time></trkpt><trkpt lat="37.5040633" lon="15.0360817"><ele>174.5</ele><time>2026-05-03T10:43:30.673Z</time></trkpt><trkpt lat="37.504045" lon="15.036185"><ele>174.0</ele><time>2026-05-03T10:43:31.673Z</time></trkpt><trkpt lat="37.5040283" lon="15.0362883"><ele>173.5</ele><time>2026-05-03T10:43:32.672Z</time></trkpt><trkpt lat="37.504015" lon="15.03639"><ele>173.0</ele><time>2026-05-03T10:43:33.673Z</time></trkpt><trkpt lat="37.504" lon="15.0364883"><ele>172.5</ele><time>2026-05-03T10:43:34.672Z</time></trkpt><trkpt lat="37.50398" lon="15.036585"><ele>172.0</ele><time>2026-05-03T10:43:35.673Z</time></trkpt><trkpt lat="37.5039617" lon="15.03668"><ele>171.42857142857144</ele><time>2026-05-03T10:43:36.672Z</time></trkpt><trkpt lat="37.5039433" lon="15.03677"><ele>170.85714285714286</ele><time>2026-05-03T10:43:37.673Z</time></trkpt><trkpt lat="37.50393" lon="15.036855"><ele>170.28571428571428</ele><time>2026-05-03T10:43:38.673Z</time></trkpt><trkpt lat="37.5039217" lon="15.0369383"><ele>169.71428571428572</ele><time>2026-05-03T10:43:39.673Z</time></trkpt><trkpt lat="37.50392" lon="15.0370217"><ele>169.14285714285714</ele><time>2026-05-03T10:43:40.673Z</time></trkpt><trkpt lat="37.5039283" lon="15.03711"><ele>168.57142857142858</ele><time>2026-05-03T10:43:41.672Z</time></trkpt><trkpt lat="37.5039433" lon="15.03721"><ele>168.0</ele><time>2026-05-03T10:43:42.678Z</time></trkpt><trkpt lat="37.5039617" lon="15.0373233"><ele>168.0</ele><time>2026-05-03T10:43:43.672Z</time></trkpt><trkpt lat="37.5039833" lon="15.0374483"><ele>168.0</ele><time>2026-05-03T10:43:44.674Z</time></trkpt><trkpt lat="37.5040017" lon="15.0375767"><ele>168.0</ele><time>2026-05-03T10:43:45.673Z</time></trkpt><trkpt lat="37.50401" lon="15.037695"><ele>168.0</ele><time>2026-05-03T10:43:46.672Z</time></trkpt><trkpt lat="37.504015" lon="15.0378"><ele>168.0</ele><time>2026-05-03T10:43:47.67Z</time></trkpt><trkpt lat="37.5040233" lon="15.0379533"><ele>167.4</ele><time>2026-05-03T10:43:49.669Z</time></trkpt><trkpt lat="37.50403" lon="15.0380867"><ele>166.8</ele><time>2026-05-03T10:43:51.675Z</time></trkpt><trkpt lat="37.5040317" lon="15.0382033"><ele>166.2</ele><time>2026-05-03T10:43:53.67Z</time></trkpt><trkpt lat="37.5040333" lon="15.038315"><ele>165.6</ele><time>2026-05-03T10:43:55.671Z</time></trkpt><trkpt lat="37.5040367" lon="15.0384283"><ele>165.0</ele><time>2026-05-03T10:43:57.672Z</time></trkpt><trkpt lat="37.5040383" lon="15.038545"><ele>164.2</ele><time>2026-05-03T10:43:59.673Z</time></trkpt><trkpt lat="37.5040467" lon="15.0386583"><ele>163.4</ele><time>2026-05-03T10:44:01.675Z</time></trkpt><trkpt lat="37.50405" lon="15.0387733"><ele>162.60000000000002</ele><time>2026-05-03T10:44:03.67Z</time></trkpt><trkpt lat="37.504055" lon="15.0388933"><ele>161.8</ele><time>2026-05-03T10:44:05.671Z</time></trkpt><trkpt lat="37.5040583" lon="15.03902"><ele>161.0</ele><time>2026-05-03T10:44:07.67Z</time></trkpt><trkpt lat="37.5040433" lon="15.0391467"><ele>158.8</ele><time>2026-05-03T10:44:09.67Z</time></trkpt><trkpt lat="37.5040167" lon="15.0392733"><ele>156.60000000000002</ele><time>2026-05-03T10:44:11.672Z</time></trkpt><trkpt lat="37.5039883" lon="15.03939"><ele>154.4</ele><time>2026-05-03T10:44:13.672Z</time></trkpt><trkpt lat="37.503965" lon="15.0394917"><ele>152.2</ele><time>2026-05-03T10:44:15.673Z</time></trkpt><trkpt lat="37.5039467" lon="15.0395967"><ele>150.0</ele><time>2026-05-03T10:44:17.671Z</time></trkpt><trkpt lat="37.5039283" lon="15.0397033"><ele>150.0</ele><time>2026-05-03T10:44:19.67Z</time></trkpt><trkpt lat="37.503905" lon="15.039815"><ele>150.0</ele><time>2026-05-03T10:44:21.67Z</time></trkpt><trkpt lat="37.5038767" lon="15.0399483"><ele>150.0</ele><time>2026-05-03T10:44:23.67Z</time></trkpt><trkpt lat="37.5038567" lon="15.0400917"><ele>150.0</ele><time>2026-05-03T10:44:25.673Z</time></trkpt><trkpt lat="37.5038633" lon="15.0402467"><ele>150.0</ele><time>2026-05-03T10:44:27.673Z</time></trkpt><trkpt lat="37.5038733" lon="15.0403383"><ele>148.66666666666666</ele><time>2026-05-03T10:44:28.674Z</time></trkpt><trkpt lat="37.5038833" lon="15.04043"><ele>147.33333333333334</ele><time>2026-05-03T10:44:29.673Z</time></trkpt><trkpt lat="37.5038933" lon="15.0405117"><ele>146.0</ele><time>2026-05-03T10:44:30.676Z</time></trkpt><trkpt lat="37.5039183" lon="15.040635"><ele>144.66666666666669</ele><time>2026-05-03T10:44:32.673Z</time></trkpt><trkpt lat="37.5039733" lon="15.0407067"><ele>143.33333333333334</ele><time>2026-05-03T10:44:35.671Z</time></trkpt><trkpt lat="37.50404" lon="15.04073"><ele>142.0</ele><time>2026-05-03T10:44:37.673Z</time></trkpt><trkpt lat="37.504135" lon="15.0407683"><ele>142.0</ele><time>2026-05-03T10:44:39.67Z</time></trkpt><trkpt lat="37.50421" lon="15.040775"><ele>142.0</ele><time>2026-05-03T10:44:41.672Z</time></trkpt><trkpt lat="37.5042733" lon="15.0407217"><ele>142.0</ele><time>2026-05-03T10:44:43.676Z</time></trkpt><trkpt lat="37.5043483" lon="15.040635"><ele>142.0</ele><time>2026-05-03T10:44:45.672Z</time></trkpt><trkpt lat="37.5044267" lon="15.0405367"><ele>142.0</ele><time>2026-05-03T10:44:47.67Z</time></trkpt><trkpt lat="37.5045117" lon="15.040435"><ele>142.6</ele><time>2026-05-03T10:44:49.67Z</time></trkpt><trkpt lat="37.50459" lon="15.0403333"><ele>143.2</ele><time>2026-05-03T10:44:51.669Z</time></trkpt><trkpt lat="37.5046667" lon="15.0402583"><ele>143.8</ele><time>2026-05-03T10:44:53.669Z</time></trkpt><trkpt lat="37.5047583" lon="15.04019"><ele>144.4</ele><time>2026-05-03T10:44:55.67Z</time></trkpt><trkpt lat="37.5048133" lon="15.0401383"><ele>145.0</ele><time>2026-05-03T10:44:56.67Z</time></trkpt><trkpt lat="37.5048717" lon="15.04008"><ele>145.0</ele><time>2026-05-03T10:44:57.672Z</time></trkpt><trkpt lat="37.5049317" lon="15.0400233"><ele>145.0</ele><time>2026-05-03T10:44:58.673Z</time></trkpt><trkpt lat="37.5049867" lon="15.0399717"><ele>145.0</ele><time>2026-05-03T10:44:59.673Z</time></trkpt><trkpt lat="37.5050767" lon="15.0398667"><ele>145.0</ele><time>2026-05-03T10:45:01.673Z</time></trkpt><trkpt lat="37.5051183" lon="15.0398"><ele>145.0</ele><time>2026-05-03T10:45:02.67Z</time></trkpt><trkpt lat="37.50516" lon="15.0397183"><ele>145.0</ele><time>2026-05-03T10:45:03.67Z</time></trkpt><trkpt lat="37.505195" lon="15.039635"><ele>145.57142857142858</ele><time>2026-05-03T10:45:04.669Z</time></trkpt><trkpt lat="37.5052283" lon="15.03956"><ele>146.14285714285717</ele><time>2026-05-03T10:45:05.67Z</time></trkpt><trkpt lat="37.5052683" lon="15.0394933"><ele>146.71428571428572</ele><time>2026-05-03T10:45:06.67Z</time></trkpt><trkpt lat="37.5053133" lon="15.039435"><ele>147.28571428571428</ele><time>2026-05-03T10:45:07.669Z</time></trkpt><trkpt lat="37.5053633" lon="15.0393767"><ele>147.85714285714283</ele><time>2026-05-03T10:45:08.67Z</time></trkpt><trkpt lat="37.50542" lon="15.0393233"><ele>148.42857142857142</ele><time>2026-05-03T10:45:09.67Z</time></trkpt><trkpt lat="37.50548" lon="15.039275"><ele>149.0</ele><time>2026-05-03T10:45:10.672Z</time></trkpt><trkpt lat="37.5055417" lon="15.0392367"><ele>149.0</ele><time>2026-05-03T10:45:11.669Z</time></trkpt><trkpt lat="37.5056433" lon="15.0391667"><ele>149.0</ele><time>2026-05-03T10:45:13.671Z</time></trkpt><trkpt lat="37.50573" lon="15.0390783"><ele>149.0</ele><time>2026-05-03T10:45:15.673Z</time></trkpt><trkpt lat="37.5057883" lon="15.0390483"><ele>149.0</ele><time>2026-05-03T10:45:16.67Z</time></trkpt><trkpt lat="37.505855" lon="15.0390133"><ele>149.0</ele><time>2026-05-03T10:45:17.673Z</time></trkpt><trkpt lat="37.505915" lon="15.0389833"><ele>149.0</ele><time>2026-05-03T10:45:18.671Z</time></trkpt><trkpt lat="37.50598" lon="15.03895"><ele>150.33333333333331</ele><time>2026-05-03T10:45:19.67Z</time></trkpt><trkpt lat="37.5060517" lon="15.0389117"><ele>151.66666666666666</ele><time>2026-05-03T10:45:20.67Z</time></trkpt><trkpt lat="37.5061267" lon="15.0388733"><ele>153.0</ele><time>2026-05-03T10:45:21.67Z</time></trkpt><trkpt lat="37.5062033" lon="15.0388317"><ele>154.33333333333334</ele><time>2026-05-03T10:45:22.67Z</time></trkpt><trkpt lat="37.506285" lon="15.0387983"><ele>155.66666666666669</ele><time>2026-05-03T10:45:23.671Z</time></trkpt><trkpt lat="37.506365" lon="15.038765"><ele>157.0</ele><time>2026-05-03T10:45:24.767Z</time></trkpt><trkpt lat="37.5064433" lon="15.038735"><ele>157.16666666666669</ele><time>2026-05-03T10:45:25.669Z</time></trkpt><trkpt lat="37.5065117" lon="15.0387067"><ele>157.33333333333334</ele><time>2026-05-03T10:45:26.673Z</time></trkpt><trkpt lat="37.5066267" lon="15.0386583"><ele>157.5</ele><time>2026-05-03T10:45:28.673Z</time></trkpt><trkpt lat="37.50669" lon="15.0386483"><ele>157.66666666666666</ele><time>2026-05-03T10:45:29.673Z</time></trkpt><trkpt lat="37.5067567" lon="15.0386383"><ele>157.83333333333331</ele><time>2026-05-03T10:45:30.673Z</time></trkpt><trkpt lat="37.5068533" lon="15.0385917"><ele>158.0</ele><time>2026-05-03T10:45:32.669Z</time></trkpt><trkpt lat="37.5069533" lon="15.0385183"><ele>158.00000000000003</ele><time>2026-05-03T10:45:34.67Z</time></trkpt><trkpt lat="37.5070133" lon="15.0384783"><ele>158.0</ele><time>2026-05-03T10:45:35.672Z</time></trkpt><trkpt lat="37.5070783" lon="15.0384333"><ele>158.0</ele><time>2026-05-03T10:45:36.67Z</time></trkpt><trkpt lat="37.50714" lon="15.0383883"><ele>158.0</ele><time>2026-05-03T10:45:37.669Z</time></trkpt><trkpt lat="37.5071967" lon="15.0383383"><ele>158.0</ele><time>2026-05-03T10:45:38.671Z</time></trkpt><trkpt lat="37.5072467" lon="15.03828"><ele>158.00000000000003</ele><time>2026-05-03T10:45:39.67Z</time></trkpt><trkpt lat="37.507295" lon="15.0382233"><ele>158.0</ele><time>2026-05-03T10:45:40.67Z</time></trkpt><trkpt lat="37.50734" lon="15.0381633"><ele>161.8</ele><time>2026-05-03T10:45:41.676Z</time></trkpt><trkpt lat="37.5073817" lon="15.0381017"><ele>165.60000000000002</ele><time>2026-05-03T10:45:42.673Z</time></trkpt><trkpt lat="37.5074383" lon="15.0379767"><ele>169.39999999999998</ele><time>2026-05-03T10:45:44.673Z</time></trkpt><trkpt lat="37.50745" lon="15.03783"><ele>173.2</ele><time>2026-05-03T10:45:46.673Z</time></trkpt><trkpt lat="37.5074417" lon="15.0376717"><ele>177.0</ele><time>2026-05-03T10:45:48.67Z</time></trkpt><trkpt lat="37.50743" lon="15.03759"><ele>177.0</ele><time>2026-05-03T10:45:49.671Z</time></trkpt><trkpt lat="37.50741" lon="15.0375033"><ele>177.0</ele><time>2026-05-03T10:45:50.67Z</time></trkpt><trkpt lat="37.5073833" lon="15.0374167"><ele>177.0</ele><time>2026-05-03T10:45:51.67Z</time></trkpt><trkpt lat="37.5073567" lon="15.0373417"><ele>177.0</ele><time>2026-05-03T10:45:52.672Z</time></trkpt><trkpt lat="37.5073117" lon="15.037235"><ele>177.0</ele><time>2026-05-03T10:45:54.673Z</time></trkpt><trkpt lat="37.507235" lon="15.0371667"><ele>177.0</ele><time>2026-05-03T10:45:56.673Z</time></trkpt><trkpt lat="37.5071783" lon="15.0371317"><ele>177.0</ele><time>2026-05-03T10:45:57.673Z</time></trkpt><trkpt lat="37.5071217" lon="15.03709"><ele>177.0</ele><time>2026-05-03T10:45:58.674Z</time></trkpt><trkpt lat="37.5070717" lon="15.0370417"><ele>177.0</ele><time>2026-05-03T10:45:59.672Z</time></trkpt><trkpt lat="37.5069917" lon="15.0369233"><ele>177.0</ele><time>2026-05-03T10:46:01.673Z</time></trkpt><trkpt lat="37.50695" lon="15.036845"><ele>177.0</ele><time>2026-05-03T10:46:02.673Z</time></trkpt><trkpt lat="37.506905" lon="15.03676"><ele>177.0</ele><time>2026-05-03T10:46:03.675Z</time></trkpt><trkpt lat="37.5068583" lon="15.0366767"><ele>179.0</ele><time>2026-05-03T10:46:04.675Z</time></trkpt><trkpt lat="37.5068083" lon="15.036605"><ele>181.0</ele><time>2026-05-03T10:46:05.672Z</time></trkpt><trkpt lat="37.5067517" lon="15.0365433"><ele>183.0</ele><time>2026-05-03T10:46:06.673Z</time></trkpt><trkpt lat="37.5066917" lon="15.0364933"><ele>185.0</ele><time>2026-05-03T10:46:07.673Z</time></trkpt><trkpt lat="37.5066267" lon="15.0364567"><ele>187.0</ele><time>2026-05-03T10:46:08.674Z</time></trkpt><trkpt lat="37.5065567" lon="15.0364317"><ele>189.0</ele><time>2026-05-03T10:46:09.673Z</time></trkpt><trkpt lat="37.5064833" lon="15.036415"><ele>191.0</ele><time>2026-05-03T10:46:10.672Z</time></trkpt><trkpt lat="37.5063967" lon="15.0364133"><ele>191.0</ele><time>2026-05-03T10:46:11.673Z</time></trkpt><trkpt lat="37.506315" lon="15.0364167"><ele>191.0</ele><time>2026-05-03T10:46:12.674Z</time></trkpt><trkpt lat="37.506245" lon="15.036425"><ele>191.0</ele><time>2026-05-03T10:46:13.673Z</time></trkpt><trkpt lat="37.5061267" lon="15.03644"><ele>191.0</ele><time>2026-05-03T10:46:15.673Z</time></trkpt><trkpt lat="37.5060183" lon="15.0363983"><ele>191.0</ele><time>2026-05-03T10:46:17.669Z</time></trkpt><trkpt lat="37.5059367" lon="15.0363217"><ele>191.4</ele><time>2026-05-03T10:46:19.673Z</time></trkpt><trkpt lat="37.5058667" lon="15.0362317"><ele>191.8</ele><time>2026-05-03T10:46:21.673Z</time></trkpt><trkpt lat="37.5058267" lon="15.03612"><ele>192.20000000000002</ele><time>2026-05-03T10:46:23.669Z</time></trkpt><trkpt lat="37.5058083" lon="15.0360033"><ele>192.60000000000002</ele><time>2026-05-03T10:46:25.673Z</time></trkpt><trkpt lat="37.5057717" lon="15.0359283"><ele>193.0</ele><time>2026-05-03T10:46:27.676Z</time></trkpt><trkpt lat="37.5056867" lon="15.0358967"><ele>192.99999999999997</ele><time>2026-05-03T10:46:29.673Z</time></trkpt><trkpt lat="37.5056183" lon="15.0358767"><ele>193.0</ele><time>2026-05-03T10:46:30.672Z</time></trkpt><trkpt lat="37.50555" lon="15.0358583"><ele>193.0</ele><time>2026-05-03T10:46:31.673Z</time></trkpt><trkpt lat="37.50544" lon="15.03585"><ele>193.0</ele><time>2026-05-03T10:46:33.67Z</time></trkpt><trkpt lat="37.5053817" lon="15.03589"><ele>192.99999999999997</ele><time>2026-05-03T10:46:35.673Z</time></trkpt><trkpt lat="37.50532" lon="15.0359367"><ele>193.0</ele><time>2026-05-03T10:46:37.672Z</time></trkpt><trkpt lat="37.5052283" lon="15.0359367"><ele>192.16666666666666</ele><time>2026-05-03T10:46:40.671Z</time></trkpt><trkpt lat="37.505165" lon="15.0358917"><ele>191.33333333333331</ele><time>2026-05-03T10:46:42.673Z</time></trkpt><trkpt lat="37.5050867" lon="15.03584"><ele>190.5</ele><time>2026-05-03T10:46:44.673Z</time></trkpt><trkpt lat="37.5049717" lon="15.0357483"><ele>189.66666666666666</ele><time>2026-05-03T10:46:46.672Z</time></trkpt><trkpt lat="37.5049083" lon="15.035695"><ele>188.83333333333331</ele><time>2026-05-03T10:46:47.67Z</time></trkpt><trkpt lat="37.5048467" lon="15.0356433"><ele>188.0</ele><time>2026-05-03T10:46:48.669Z</time></trkpt><trkpt lat="37.5047883" lon="15.0355967"><ele>188.0</ele><time>2026-05-03T10:46:49.67Z</time></trkpt><trkpt lat="37.5047333" lon="15.0355533"><ele>188.0</ele><time>2026-05-03T10:46:50.67Z</time></trkpt><trkpt lat="37.5046233" lon="15.0354883"><ele>188.0</ele><time>2026-05-03T10:46:52.669Z</time></trkpt><trkpt lat="37.5045083" lon="15.03543"><ele>188.0</ele><time>2026-05-03T10:46:54.673Z</time></trkpt><trkpt lat="37.504405" lon="15.0353967"><ele>188.0</ele><time>2026-05-03T10:46:56.674Z</time></trkpt><trkpt lat="37.504305" lon="15.035395"><ele>185.4</ele><time>2026-05-03T10:46:58.672Z</time></trkpt><trkpt lat="37.504215" lon="15.03539"><ele>182.8</ele><time>2026-05-03T10:47:00.668Z</time></trkpt><trkpt lat="37.504155" lon="15.0354433"><ele>180.2</ele><time>2026-05-03T10:47:03.669Z</time></trkpt><trkpt lat="37.5041467" lon="15.0355417"><ele>177.6</ele><time>2026-05-03T10:47:05.671Z</time></trkpt><trkpt lat="37.50413" lon="15.0357117"><ele>175.0</ele><time>2026-05-03T10:47:07.67Z</time></trkpt><trkpt lat="37.50412" lon="15.0358217"><ele>174.4</ele><time>2026-05-03T10:47:08.67Z</time></trkpt><trkpt lat="37.504105" lon="15.0359317"><ele>173.8</ele><time>2026-05-03T10:47:09.669Z</time></trkpt><trkpt lat="37.5040883" lon="15.036045"><ele>173.2</ele><time>2026-05-03T10:47:10.669Z</time></trkpt><trkpt lat="37.5040683" lon="15.03616"><ele>172.6</ele><time>2026-05-03T10:47:11.672Z</time></trkpt><trkpt lat="37.5040517" lon="15.036275"><ele>172.0</ele><time>2026-05-03T10:47:12.672Z</time></trkpt><trkpt lat="37.5040367" lon="15.036385"><ele>172.0</ele><time>2026-05-03T10:47:13.672Z</time></trkpt><trkpt lat="37.5040183" lon="15.0364833"><ele>172.0</ele><time>2026-05-03T10:47:14.673Z</time></trkpt><trkpt lat="37.5039983" lon="15.0365817"><ele>172.0</ele><time>2026-05-03T10:47:15.671Z</time></trkpt><trkpt lat="37.50398" lon="15.0366767"><ele>172.0</ele><time>2026-05-03T10:47:16.668Z</time></trkpt><trkpt lat="37.5039633" lon="15.0367683"><ele>172.0</ele><time>2026-05-03T10:47:17.671Z</time></trkpt><trkpt lat="37.5039483" lon="15.0368583"><ele>172.0</ele><time>2026-05-03T10:47:18.669Z</time></trkpt><trkpt lat="37.5039367" lon="15.036955"><ele>171.33333333333334</ele><time>2026-05-03T10:47:19.669Z</time></trkpt><trkpt lat="37.5039333" lon="15.0370483"><ele>170.66666666666669</ele><time>2026-05-03T10:47:20.669Z</time></trkpt><trkpt lat="37.50394" lon="15.03714"><ele>170.0</ele><time>2026-05-03T10:47:21.67Z</time></trkpt><trkpt lat="37.5039517" lon="15.0372367"><ele>169.33333333333334</ele><time>2026-05-03T10:47:22.67Z</time></trkpt><trkpt lat="37.50397" lon="15.0373483"><ele>168.66666666666666</ele><time>2026-05-03T10:47:23.671Z</time></trkpt><trkpt lat="37.5039883" lon="15.0374717"><ele>168.0</ele><time>2026-05-03T10:47:24.672Z</time></trkpt><trkpt lat="37.5040033" lon="15.0376"><ele>167.5</ele><time>2026-05-03T10:47:25.669Z</time></trkpt><trkpt lat="37.504015" lon="15.0377183"><ele>167.0</ele><time>2026-05-03T10:47:26.669Z</time></trkpt><trkpt lat="37.5040217" lon="15.03782"><ele>166.5</ele><time>2026-05-03T10:47:27.671Z</time></trkpt><trkpt lat="37.5040317" lon="15.03791"><ele>166.0</ele><time>2026-05-03T10:47:28.673Z</time></trkpt><trkpt lat="37.50404" lon="15.03799"><ele>165.5</ele><time>2026-05-03T10:47:29.67Z</time></trkpt><trkpt lat="37.5040517" lon="15.03814"><ele>165.0</ele><time>2026-05-03T10:47:31.672Z</time></trkpt><trkpt lat="37.5040567" lon="15.038275"><ele>164.2</ele><time>2026-05-03T10:47:33.669Z</time></trkpt><trkpt lat="37.5040583" lon="15.0384"><ele>163.4</ele><time>2026-05-03T10:47:35.669Z</time></trkpt><trkpt lat="37.5040633" lon="15.03852"><ele>162.60000000000002</ele><time>2026-05-03T10:47:37.669Z</time></trkpt><trkpt lat="37.5040683" lon="15.0386417"><ele>161.8</ele><time>2026-05-03T10:47:39.668Z</time></trkpt><trkpt lat="37.50407" lon="15.0387667"><ele>161.0</ele><time>2026-05-03T10:47:41.672Z</time></trkpt><trkpt lat="37.50407" lon="15.0388933"><ele>161.0</ele><time>2026-05-03T10:47:43.668Z</time></trkpt><trkpt lat="37.50407" lon="15.039025"><ele>161.0</ele><time>2026-05-03T10:47:45.671Z</time></trkpt><trkpt lat="37.5040517" lon="15.039155"><ele>161.0</ele><time>2026-05-03T10:47:47.67Z</time></trkpt><trkpt lat="37.5040233" lon="15.03928"><ele>161.0</ele><time>2026-05-03T10:47:49.669Z</time></trkpt><trkpt lat="37.5039967" lon="15.0393967"><ele>161.0</ele><time>2026-05-03T10:47:51.669Z</time></trkpt><trkpt lat="37.5039733" lon="15.0395117"><ele>158.8</ele><time>2026-05-03T10:47:53.672Z</time></trkpt><trkpt lat="37.5039517" lon="15.0396283"><ele>156.60000000000002</ele><time>2026-05-03T10:47:55.673Z</time></trkpt><trkpt lat="37.5039283" lon="15.0397417"><ele>154.4</ele><time>2026-05-03T10:47:57.673Z</time></trkpt><trkpt lat="37.5039017" lon="15.0398867"><ele>152.2</ele><time>2026-05-03T10:47:59.671Z</time></trkpt><trkpt lat="37.5038833" lon="15.0399633"><ele>150.0</ele><time>2026-05-03T10:48:00.673Z</time></trkpt><trkpt lat="37.50386" lon="15.0401117"><ele>148.85714285714283</ele><time>2026-05-03T10:48:02.669Z</time></trkpt><trkpt lat="37.5038617" lon="15.040195"><ele>147.71428571428572</ele><time>2026-05-03T10:48:03.669Z</time></trkpt><trkpt lat="37.5038667" lon="15.0402883"><ele>146.57142857142856</ele><time>2026-05-03T10:48:04.672Z</time></trkpt><trkpt lat="37.503875" lon="15.0403833"><ele>145.42857142857142</ele><time>2026-05-03T10:48:05.671Z</time></trkpt><trkpt lat="37.5038867" lon="15.0404767"><ele>144.28571428571428</ele><time>2026-05-03T10:48:06.668Z</time></trkpt><trkpt lat="37.5038967" lon="15.0405567"><ele>143.14285714285714</ele><time>2026-05-03T10:48:07.67Z</time></trkpt><trkpt lat="37.50392" lon="15.0406617"><ele>142.0</ele><time>2026-05-03T10:48:09.67Z</time></trkpt><trkpt lat="37.5040033" lon="15.040705"><ele>142.0</ele><time>2026-05-03T10:48:13.672Z</time></trkpt><trkpt lat="37.5040967" lon="15.040745"><ele>142.0</ele><time>2026-05-03T10:48:15.672Z</time></trkpt><trkpt lat="37.50417" lon="15.0407617"><ele>142.0</ele><time>2026-05-03T10:48:17.672Z</time></trkpt><trkpt lat="37.5042583" lon="15.040725"><ele>142.0</ele><time>2026-05-03T10:48:20.67Z</time></trkpt><trkpt lat="37.5043283" lon="15.0406533"><ele>142.0</ele><time>2026-05-03T10:48:22.671Z</time></trkpt><trkpt lat="37.5043967" lon="15.0405567"><ele>142.0</ele><time>2026-05-03T10:48:24.67Z</time></trkpt><trkpt lat="37.5044783" lon="15.0404617"><ele>142.0</ele><time>2026-05-03T10:48:26.67Z</time></trkpt><trkpt lat="37.5045617" lon="15.040355"><ele>142.0</ele><time>2026-05-03T10:48:28.67Z</time></trkpt><trkpt lat="37.5046067" lon="15.0402967"><ele>142.0</ele><time>2026-05-03T10:48:29.673Z</time></trkpt><trkpt lat="37.5046967" lon="15.04021"><ele>142.0</ele><time>2026-05-03T10:48:31.673Z</time></trkpt><trkpt lat="37.50481" lon="15.0401133"><ele>142.5</ele><time>2026-05-03T10:48:33.672Z</time></trkpt><trkpt lat="37.50488" lon="15.04005"><ele>143.0</ele><time>2026-05-03T10:48:34.673Z</time></trkpt><trkpt lat="37.5049467" lon="15.03999"><ele>143.5</ele><time>2026-05-03T10:48:35.669Z</time></trkpt><trkpt lat="37.505" lon="15.039935"><ele>144.0</ele><time>2026-05-03T10:48:36.673Z</time></trkpt><trkpt lat="37.5050867" lon="15.039815"><ele>144.5</ele><time>2026-05-03T10:48:38.67Z</time></trkpt><trkpt lat="37.5051317" lon="15.0397383"><ele>145.0</ele><time>2026-05-03T10:48:39.67Z</time></trkpt><trkpt lat="37.5051767" lon="15.0396483"><ele>145.66666666666669</ele><time>2026-05-03T10:48:40.672Z</time></trkpt><trkpt lat="37.5052217" lon="15.03956"><ele>146.33333333333334</ele><time>2026-05-03T10:48:41.673Z</time></trkpt><trkpt lat="37.50527" lon="15.0394733"><ele>147.0</ele><time>2026-05-03T10:48:42.672Z</time></trkpt><trkpt lat="37.50533" lon="15.039405"><ele>147.66666666666666</ele><time>2026-05-03T10:48:43.672Z</time></trkpt><trkpt lat="37.505395" lon="15.03934"><ele>148.33333333333331</ele><time>2026-05-03T10:48:44.672Z</time></trkpt><trkpt lat="37.5054667" lon="15.0392833"><ele>149.0</ele><time>2026-05-03T10:48:45.671Z</time></trkpt><trkpt lat="37.5055417" lon="15.0392417"><ele>149.0</ele><time>2026-05-03T10:48:46.673Z</time></trkpt><trkpt lat="37.5056083" lon="15.0392067"><ele>149.0</ele><time>2026-05-03T10:48:47.673Z</time></trkpt><trkpt lat="37.505665" lon="15.0391583"><ele>149.0</ele><time>2026-05-03T10:48:48.668Z</time></trkpt><trkpt lat="37.5057483" lon="15.0390567"><ele>149.0</ele><time>2026-05-03T10:48:50.67Z</time></trkpt><trkpt lat="37.505875" lon="15.039"><ele>149.0</ele><time>2026-05-03T10:48:52.67Z</time></trkpt><trkpt lat="37.5059467" lon="15.0389717"><ele>150.33333333333331</ele><time>2026-05-03T10:48:53.672Z</time></trkpt><trkpt lat="37.5060233" lon="15.038935"><ele>151.66666666666666</ele><time>2026-05-03T10:48:54.673Z</time></trkpt><trkpt lat="37.5061017" lon="15.0388933"><ele>153.0</ele><time>2026-05-03T10:48:55.672Z</time></trkpt><trkpt lat="37.50618" lon="15.0388517"><ele>154.33333333333334</ele><time>2026-05-03T10:48:56.673Z</time></trkpt><trkpt lat="37.5062533" lon="15.0388117"><ele>155.66666666666669</ele><time>2026-05-03T10:48:57.673Z</time></trkpt><trkpt lat="37.5063267" lon="15.0387767"><ele>157.0</ele><time>2026-05-03T10:48:58.672Z</time></trkpt><trkpt lat="37.5064017" lon="15.0387483"><ele>157.16666666666669</ele><time>2026-05-03T10:48:59.671Z</time></trkpt><trkpt lat="37.5064733" lon="15.0387167"><ele>157.33333333333334</ele><time>2026-05-03T10:49:00.673Z</time></trkpt><trkpt lat="37.5065383" lon="15.0386917"><ele>157.5</ele><time>2026-05-03T10:49:01.67Z</time></trkpt><trkpt lat="37.5066" lon="15.0386683"><ele>157.66666666666666</ele><time>2026-05-03T10:49:02.671Z</time></trkpt><trkpt lat="37.5066633" lon="15.0386533"><ele>157.83333333333331</ele><time>2026-05-03T10:49:03.669Z</time></trkpt><trkpt lat="37.506775" lon="15.0386383"><ele>158.0</ele><time>2026-05-03T10:49:05.669Z</time></trkpt><trkpt lat="37.5068583" lon="15.038585"><ele>158.0</ele><time>2026-05-03T10:49:07.67Z</time></trkpt><trkpt lat="37.506965" lon="15.0385117"><ele>158.0</ele><time>2026-05-03T10:49:09.672Z</time></trkpt><trkpt lat="37.507025" lon="15.0384733"><ele>158.0</ele><time>2026-05-03T10:49:10.669Z</time></trkpt><trkpt lat="37.5070867" lon="15.0384317"><ele>158.0</ele><time>2026-05-03T10:49:11.673Z</time></trkpt><trkpt lat="37.5071483" lon="15.0383817"><ele>158.0</ele><time>2026-05-03T10:49:12.672Z</time></trkpt><trkpt lat="37.5072067" lon="15.0383267"><ele>158.0</ele><time>2026-05-03T10:49:13.672Z</time></trkpt><trkpt lat="37.50726" lon="15.0382667"><ele>161.8</ele><time>2026-05-03T10:49:14.673Z</time></trkpt><trkpt lat="37.5073133" lon="15.0382"><ele>165.60000000000002</ele><time>2026-05-03T10:49:15.673Z</time></trkpt><trkpt lat="37.5073933" lon="15.0380833"><ele>169.39999999999998</ele><time>2026-05-03T10:49:17.67Z</time></trkpt><trkpt lat="37.5074417" lon="15.03795"><ele>173.2</ele><time>2026-05-03T10:49:19.674Z</time></trkpt><trkpt lat="37.5074617" lon="15.03779"><ele>177.0</ele><time>2026-05-03T10:49:21.669Z</time></trkpt><trkpt lat="37.5074533" lon="15.037705"><ele>177.0</ele><time>2026-05-03T10:49:22.669Z</time></trkpt><trkpt lat="37.50744" lon="15.0376133"><ele>177.0</ele><time>2026-05-03T10:49:23.671Z</time></trkpt><trkpt lat="37.5074183" lon="15.03752"><ele>177.0</ele><time>2026-05-03T10:49:24.673Z</time></trkpt><trkpt lat="37.50739" lon="15.0374283"><ele>177.0</ele><time>2026-05-03T10:49:25.68Z</time></trkpt><trkpt lat="37.5073633" lon="15.0373483"><ele>177.0</ele><time>2026-05-03T10:49:26.673Z</time></trkpt><trkpt lat="37.507315" lon="15.0372317"><ele>177.0</ele><time>2026-05-03T10:49:28.672Z</time></trkpt><trkpt lat="37.507225" lon="15.0371517"><ele>177.0</ele><time>2026-05-03T10:49:30.67Z</time></trkpt><trkpt lat="37.507165" lon="15.0371133"><ele>177.0</ele><time>2026-05-03T10:49:31.67Z</time></trkpt><trkpt lat="37.5071067" lon="15.03707"><ele>177.0</ele><time>2026-05-03T10:49:32.67Z</time></trkpt><trkpt lat="37.507025" lon="15.03697"><ele>177.0</ele><time>2026-05-03T10:49:34.671Z</time></trkpt><trkpt lat="37.5069883" lon="15.036905"><ele>177.0</ele><time>2026-05-03T10:49:35.67Z</time></trkpt><trkpt lat="37.5069483" lon="15.036825"><ele>177.0</ele><time>2026-05-03T10:49:36.676Z</time></trkpt><trkpt lat="37.5069067" lon="15.0367417"><ele>177.0</ele><time>2026-05-03T10:49:37.67Z</time></trkpt><trkpt lat="37.5068583" lon="15.0366617"><ele>177.0</ele><time>2026-05-03T10:49:38.67Z</time></trkpt><trkpt lat="37.506805" lon="15.03659"><ele>177.0</ele><time>2026-05-03T10:49:39.67Z</time></trkpt><trkpt lat="37.5067517" lon="15.03653"><ele>177.0</ele><time>2026-05-03T10:49:40.674Z</time></trkpt><trkpt lat="37.5066933" lon="15.0364817"><ele>177.0</ele><time>2026-05-03T10:49:41.67Z</time></trkpt><trkpt lat="37.50663" lon="15.0364483"><ele>177.0</ele><time>2026-05-03T10:49:42.67Z</time></trkpt><trkpt lat="37.5065633" lon="15.0364267"><ele>177.0</ele><time>2026-05-03T10:49:43.672Z</time></trkpt><trkpt lat="37.5064917" lon="15.036415"><ele>179.33333333333334</ele><time>2026-05-03T10:49:44.674Z</time></trkpt><trkpt lat="37.5064167" lon="15.0364117"><ele>181.66666666666666</ele><time>2026-05-03T10:49:45.674Z</time></trkpt><trkpt lat="37.5063383" lon="15.0364167"><ele>184.0</ele><time>2026-05-03T10:49:46.67Z</time></trkpt><trkpt lat="37.5062667" lon="15.0364217"><ele>186.33333333333331</ele><time>2026-05-03T10:49:47.671Z</time></trkpt><trkpt lat="37.50616" lon="15.03643"><ele>188.66666666666666</ele><time>2026-05-03T10:49:49.671Z</time></trkpt><trkpt lat="37.5060817" lon="15.0364233"><ele>191.0</ele><time>2026-05-03T10:49:51.671Z</time></trkpt><trkpt lat="37.5060133" lon="15.036385"><ele>191.33333333333331</ele><time>2026-05-03T10:49:53.671Z</time></trkpt><trkpt lat="37.5059483" lon="15.03632"><ele>191.66666666666666</ele><time>2026-05-03T10:49:55.671Z</time></trkpt><trkpt lat="37.5058883" lon="15.036245"><ele>192.0</ele><time>2026-05-03T10:49:57.673Z</time></trkpt><trkpt lat="37.505845" lon="15.0361467"><ele>192.33333333333331</ele><time>2026-05-03T10:49:59.672Z</time></trkpt><trkpt lat="37.5058217" lon="15.0360183"><ele>192.66666666666666</ele><time>2026-05-03T10:50:01.673Z</time></trkpt><trkpt lat="37.50579" lon="15.0359267"><ele>193.0</ele><time>2026-05-03T10:50:03.673Z</time></trkpt><trkpt lat="37.5056933" lon="15.0358833"><ele>192.99999999999997</ele><time>2026-05-03T10:50:05.67Z</time></trkpt><trkpt lat="37.5056283" lon="15.0358667"><ele>193.0</ele><time>2026-05-03T10:50:06.67Z</time></trkpt><trkpt lat="37.5055617" lon="15.0358483"><ele>193.0</ele><time>2026-05-03T10:50:07.669Z</time></trkpt><trkpt lat="37.5054583" lon="15.0358467"><ele>193.0</ele><time>2026-05-03T10:50:09.669Z</time></trkpt><trkpt lat="37.5053883" lon="15.0358783"><ele>192.99999999999997</ele><time>2026-05-03T10:50:11.672Z</time></trkpt><trkpt lat="37.5053067" lon="15.0359267"><ele>193.0</ele><time>2026-05-03T10:50:14.671Z</time></trkpt><trkpt lat="37.50522" lon="15.0359083"><ele>192.0</ele><time>2026-05-03T10:50:17.669Z</time></trkpt><trkpt lat="37.5051283" lon="15.0358517"><ele>191.0</ele><time>2026-05-03T10:50:19.672Z</time></trkpt><trkpt lat="37.505025" lon="15.03577"><ele>190.0</ele><time>2026-05-03T10:50:21.67Z</time></trkpt><trkpt lat="37.5049183" lon="15.0356783"><ele>189.0</ele><time>2026-05-03T10:50:23.669Z</time></trkpt><trkpt lat="37.5048633" lon="15.0356317"><ele>188.0</ele><time>2026-05-03T10:50:24.674Z</time></trkpt><trkpt lat="37.5048083" lon="15.0355883"><ele>188.0</ele><time>2026-05-03T10:50:25.674Z</time></trkpt><trkpt lat="37.5047483" lon="15.0355467"><ele>188.0</ele><time>2026-05-03T10:50:26.673Z</time></trkpt><trkpt lat="37.5046883" lon="15.03551"><ele>188.0</ele><time>2026-05-03T10:50:27.675Z</time></trkpt><trkpt lat="37.50463" lon="15.0354783"><ele>188.0</ele><time>2026-05-03T10:50:28.672Z</time></trkpt><trkpt lat="37.50452" lon="15.0354167"><ele>188.0</ele><time>2026-05-03T10:50:30.673Z</time></trkpt><trkpt lat="37.5044033" lon="15.0353883"><ele>188.0</ele><time>2026-05-03T10:50:32.67Z</time></trkpt><trkpt lat="37.504295" lon="15.03538"><ele>185.83333333333331</ele><time>2026-05-03T10:50:34.671Z</time></trkpt><trkpt lat="37.50421" lon="15.03538"><ele>183.66666666666666</ele><time>2026-05-03T10:50:36.67Z</time></trkpt><trkpt lat="37.50416" lon="15.03544"><ele>181.5</ele><time>2026-05-03T10:50:39.671Z</time></trkpt><trkpt lat="37.5041483" lon="15.035525"><ele>179.33333333333334</ele><time>2026-05-03T10:50:42.673Z</time></trkpt><trkpt lat="37.5041383" lon="15.0356367"><ele>177.16666666666669</ele><time>2026-05-03T10:50:44.673Z</time></trkpt><trkpt lat="37.5040767" lon="15.0357367"><ele>175.0</ele><time>2026-05-03T10:50:46.938Z</time></trkpt><trkpt lat="37.504065" lon="15.0358417"><ele>174.5</ele><time>2026-05-03T10:50:48.669Z</time></trkpt><trkpt lat="37.5040567" lon="15.0359633"><ele>174.0</ele><time>2026-05-03T10:50:50.672Z</time></trkpt><trkpt lat="37.5040467" lon="15.0360483"><ele>173.5</ele><time>2026-05-03T10:50:51.67Z</time></trkpt><trkpt lat="37.5040317" lon="15.0361417"><ele>173.0</ele><time>2026-05-03T10:50:52.67Z</time></trkpt><trkpt lat="37.5040167" lon="15.03624"><ele>172.5</ele><time>2026-05-03T10:50:53.67Z</time></trkpt><trkpt lat="37.5040017" lon="15.03634"><ele>172.0</ele><time>2026-05-03T10:50:54.673Z</time></trkpt><trkpt lat="37.5039883" lon="15.0364433"><ele>172.0</ele><time>2026-05-03T10:50:55.67Z</time></trkpt><trkpt lat="37.5039683" lon="15.0365483"><ele>172.0</ele><time>2026-05-03T10:50:56.67Z</time></trkpt><trkpt lat="37.5039467" lon="15.0366533"><ele>172.0</ele><time>2026-05-03T10:50:57.671Z</time></trkpt><trkpt lat="37.503925" lon="15.03676"><ele>172.0</ele><time>2026-05-03T10:50:58.67Z</time></trkpt><trkpt lat="37.5039117" lon="15.0368617"><ele>172.0</ele><time>2026-05-03T10:50:59.669Z</time></trkpt><trkpt lat="37.5039033" lon="15.0369617"><ele>172.0</ele><time>2026-05-03T10:51:00.67Z</time></trkpt><trkpt lat="37.5039033" lon="15.0370567"><ele>171.2</ele><time>2026-05-03T10:51:01.669Z</time></trkpt><trkpt lat="37.5039117" lon="15.03716"><ele>170.39999999999998</ele><time>2026-05-03T10:51:02.67Z</time></trkpt><trkpt lat="37.5039283" lon="15.0372733"><ele>169.60000000000002</ele><time>2026-05-03T10:51:03.669Z</time></trkpt><trkpt lat="37.5039483" lon="15.0373983"><ele>168.8</ele><time>2026-05-03T10:51:04.671Z</time></trkpt><trkpt lat="37.5039667" lon="15.0375317"><ele>168.0</ele><time>2026-05-03T10:51:05.669Z</time></trkpt><trkpt lat="37.5039817" lon="15.03766"><ele>167.4</ele><time>2026-05-03T10:51:06.669Z</time></trkpt><trkpt lat="37.5039917" lon="15.037775"><ele>166.8</ele><time>2026-05-03T10:51:07.67Z</time></trkpt><trkpt lat="37.5039983" lon="15.0378717"><ele>166.2</ele><time>2026-05-03T10:51:08.673Z</time></trkpt><trkpt lat="37.504005" lon="15.037955"><ele>165.6</ele><time>2026-05-03T10:51:09.67Z</time></trkpt><trkpt lat="37.5040117" lon="15.0381"><ele>165.0</ele><time>2026-05-03T10:51:11.675Z</time></trkpt><trkpt lat="37.5040133" lon="15.0382283"><ele>164.2</ele><time>2026-05-03T10:51:13.671Z</time></trkpt><trkpt lat="37.5040133" lon="15.0383517"><ele>163.4</ele><time>2026-05-03T10:51:15.67Z</time></trkpt><trkpt lat="37.504015" lon="15.0384733"><ele>162.60000000000002</ele><time>2026-05-03T10:51:17.669Z</time></trkpt><trkpt lat="37.5040183" lon="15.0386017"><ele>161.8</ele><time>2026-05-03T10:51:19.671Z</time></trkpt><trkpt lat="37.5040217" lon="15.0387317"><ele>161.0</ele><time>2026-05-03T10:51:21.67Z</time></trkpt><trkpt lat="37.5040217" lon="15.0388583"><ele>161.0</ele><time>2026-05-03T10:51:23.67Z</time></trkpt><trkpt lat="37.5040183" lon="15.0390067"><ele>161.0</ele><time>2026-05-03T10:51:25.672Z</time></trkpt><trkpt lat="37.504" lon="15.0391583"><ele>161.0</ele><time>2026-05-03T10:51:27.67Z</time></trkpt><trkpt lat="37.503975" lon="15.0392917"><ele>161.0</ele><time>2026-05-03T10:51:29.669Z</time></trkpt><trkpt lat="37.50395" lon="15.0394083"><ele>161.0</ele><time>2026-05-03T10:51:31.671Z</time></trkpt><trkpt lat="37.5039283" lon="15.0395133"><ele>159.16666666666666</ele><time>2026-05-03T10:51:33.67Z</time></trkpt><trkpt lat="37.5039117" lon="15.0396167"><ele>157.33333333333331</ele><time>2026-05-03T10:51:35.67Z</time></trkpt><trkpt lat="37.503885" lon="15.0397533"><ele>155.5</ele><time>2026-05-03T10:51:37.673Z</time></trkpt><trkpt lat="37.5038683" lon="15.039835"><ele>153.66666666666666</ele><time>2026-05-03T10:51:38.671Z</time></trkpt><trkpt lat="37.50385" lon="15.0399183"><ele>151.83333333333334</ele><time>2026-05-03T10:51:39.669Z</time></trkpt><trkpt lat="37.50383" lon="15.0399983"><ele>150.0</ele><time>2026-05-03T10:51:40.669Z</time></trkpt><trkpt lat="37.5038183" lon="15.0400833"><ele>148.85714285714283</ele><time>2026-05-03T10:51:41.671Z</time></trkpt><trkpt lat="37.5038183" lon="15.0401683"><ele>147.71428571428572</ele><time>2026-05-03T10:51:42.669Z</time></trkpt><trkpt lat="37.5038283" lon="15.0402567"><ele>146.57142857142856</ele><time>2026-05-03T10:51:43.671Z</time></trkpt><trkpt lat="37.50384" lon="15.0403467"><ele>145.42857142857142</ele><time>2026-05-03T10:51:44.669Z</time></trkpt><trkpt lat="37.5038517" lon="15.0404317"><ele>144.28571428571428</ele><time>2026-05-03T10:51:45.668Z</time></trkpt><trkpt lat="37.50386" lon="15.040515"><ele>143.14285714285714</ele><time>2026-05-03T10:51:46.669Z</time></trkpt><trkpt lat="37.5038733" lon="15.0406383"><ele>142.0</ele><time>2026-05-03T10:51:48.669Z</time></trkpt><trkpt lat="37.5039267" lon="15.0407133"><ele>142.0</ele><time>2026-05-03T10:51:51.669Z</time></trkpt><trkpt lat="37.5040017" lon="15.0407183"><ele>142.0</ele><time>2026-05-03T10:51:53.669Z</time></trkpt><trkpt lat="37.5040933" lon="15.0407467"><ele>142.0</ele><time>2026-05-03T10:51:55.671Z</time></trkpt><trkpt lat="37.5041733" lon="15.0407583"><ele>142.0</ele><time>2026-05-03T10:51:57.67Z</time></trkpt><trkpt lat="37.5042433" lon="15.0407183"><ele>142.0</ele><time>2026-05-03T10:51:59.671Z</time></trkpt><trkpt lat="37.504315" lon="15.0406317"><ele>142.0</ele><time>2026-05-03T10:52:01.67Z</time></trkpt><trkpt lat="37.5043967" lon="15.0405233"><ele>142.0</ele><time>2026-05-03T10:52:03.669Z</time></trkpt><trkpt lat="37.5044417" lon="15.040465"><ele>142.0</ele><time>2026-05-03T10:52:04.67Z</time></trkpt><trkpt lat="37.50449" lon="15.040405"><ele>142.0</ele><time>2026-05-03T10:52:05.67Z</time></trkpt><trkpt lat="37.5045367" lon="15.0403433"><ele>142.0</ele><time>2026-05-03T10:52:06.669Z</time></trkpt><trkpt lat="37.5045867" lon="15.0402867"><ele>142.0</ele><time>2026-05-03T10:52:07.672Z</time></trkpt><trkpt lat="37.50464" lon="15.0402383"><ele>142.0</ele><time>2026-05-03T10:52:08.67Z</time></trkpt><trkpt lat="37.5046967" lon="15.0401917"><ele>142.0</ele><time>2026-05-03T10:52:09.669Z</time></trkpt><trkpt lat="37.5047583" lon="15.04014"><ele>142.5</ele><time>2026-05-03T10:52:10.669Z</time></trkpt><trkpt lat="37.50482" lon="15.0400817"><ele>143.0</ele><time>2026-05-03T10:52:11.672Z</time></trkpt><trkpt lat="37.5048883" lon="15.04002"><ele>143.5</ele><time>2026-05-03T10:52:12.674Z</time></trkpt><trkpt lat="37.5049517" lon="15.0399583"><ele>144.0</ele><time>2026-05-03T10:52:13.672Z</time></trkpt><trkpt lat="37.505005" lon="15.0398983"><ele>144.5</ele><time>2026-05-03T10:52:14.673Z</time></trkpt><trkpt lat="37.505055" lon="15.0398367"><ele>145.0</ele><time>2026-05-03T10:52:15.672Z</time></trkpt><trkpt lat="37.5051" lon="15.0397683"><ele>145.66666666666669</ele><time>2026-05-03T10:52:16.67Z</time></trkpt><trkpt lat="37.50514" lon="15.0396867"><ele>146.33333333333334</ele><time>2026-05-03T10:52:17.67Z</time></trkpt><trkpt lat="37.5051783" lon="15.0396"><ele>147.0</ele><time>2026-05-03T10:52:18.67Z</time></trkpt><trkpt lat="37.5052217" lon="15.039515"><ele>147.66666666666666</ele><time>2026-05-03T10:52:19.67Z</time></trkpt><trkpt lat="37.505275" lon="15.0394417"><ele>148.33333333333331</ele><time>2026-05-03T10:52:20.67Z</time></trkpt><trkpt lat="37.50534" lon="15.0393733"><ele>149.0</ele><time>2026-05-03T10:52:21.669Z</time></trkpt><trkpt lat="37.5054117" lon="15.0393117"><ele>149.0</ele><time>2026-05-03T10:52:22.67Z</time></trkpt><trkpt lat="37.5054867" lon="15.0392633"><ele>149.0</ele><time>2026-05-03T10:52:23.669Z</time></trkpt><trkpt lat="37.505555" lon="15.0392217"><ele>149.0</ele><time>2026-05-03T10:52:24.669Z</time></trkpt><trkpt lat="37.50561" lon="15.0391783"><ele>149.0</ele><time>2026-05-03T10:52:25.668Z</time></trkpt><trkpt lat="37.50571" lon="15.0390783"><ele>149.0</ele><time>2026-05-03T10:52:27.67Z</time></trkpt><trkpt lat="37.5057767" lon="15.0390417"><ele>149.0</ele><time>2026-05-03T10:52:28.669Z</time></trkpt><trkpt lat="37.5058467" lon="15.0390133"><ele>150.33333333333331</ele><time>2026-05-03T10:52:29.669Z</time></trkpt><trkpt lat="37.5059217" lon="15.0389867"><ele>151.66666666666666</ele><time>2026-05-03T10:52:30.668Z</time></trkpt><trkpt lat="37.506" lon="15.0389517"><ele>153.0</ele><time>2026-05-03T10:52:31.669Z</time></trkpt><trkpt lat="37.50608" lon="15.03891"><ele>154.33333333333334</ele><time>2026-05-03T10:52:32.67Z</time></trkpt><trkpt lat="37.5061583" lon="15.0388683"><ele>155.66666666666669</ele><time>2026-05-03T10:52:33.669Z</time></trkpt><trkpt lat="37.506235" lon="15.0388267"><ele>157.0</ele><time>2026-05-03T10:52:34.669Z</time></trkpt><trkpt lat="37.5063067" lon="15.038795"><ele>157.16666666666669</ele><time>2026-05-03T10:52:35.669Z</time></trkpt><trkpt lat="37.5063767" lon="15.0387633"><ele>157.33333333333334</ele><time>2026-05-03T10:52:36.67Z</time></trkpt><trkpt lat="37.5064433" lon="15.0387367"><ele>157.5</ele><time>2026-05-03T10:52:37.67Z</time></trkpt><trkpt lat="37.50651" lon="15.03871"><ele>157.66666666666666</ele><time>2026-05-03T10:52:38.671Z</time></trkpt><trkpt lat="37.5065733" lon="15.038685"><ele>157.83333333333331</ele><time>2026-05-03T10:52:39.67Z</time></trkpt><trkpt lat="37.50669" lon="15.03865"><ele>158.0</ele><time>2026-05-03T10:52:41.669Z</time></trkpt><trkpt lat="37.506795" lon="15.0386033"><ele>158.00000000000003</ele><time>2026-05-03T10:52:43.671Z</time></trkpt><trkpt lat="37.50685" lon="15.0385617"><ele>158.0</ele><time>2026-05-03T10:52:44.672Z</time></trkpt><trkpt lat="37.50691" lon="15.0385233"><ele>158.0</ele><time>2026-05-03T10:52:45.674Z</time></trkpt><trkpt lat="37.5069767" lon="15.0384783"><ele>158.0</ele><time>2026-05-03T10:52:46.672Z</time></trkpt><trkpt lat="37.5070483" lon="15.03843"><ele>158.0</ele><time>2026-05-03T10:52:47.67Z</time></trkpt><trkpt lat="37.5071133" lon="15.0383867"><ele>158.00000000000003</ele><time>2026-05-03T10:52:48.672Z</time></trkpt><trkpt lat="37.50717" lon="15.0383367"><ele>158.0</ele><time>2026-05-03T10:52:49.669Z</time></trkpt><trkpt lat="37.5072233" lon="15.0382717"><ele>160.71428571428572</ele><time>2026-05-03T10:52:50.672Z</time></trkpt><trkpt lat="37.5072733" lon="15.0382033"><ele>163.42857142857144</ele><time>2026-05-03T10:52:51.669Z</time></trkpt><trkpt lat="37.50732" lon="15.038135"><ele>166.14285714285717</ele><time>2026-05-03T10:52:52.669Z</time></trkpt><trkpt lat="37.50736" lon="15.038065"><ele>168.85714285714286</ele><time>2026-05-03T10:52:53.672Z</time></trkpt><trkpt lat="37.50739" lon="15.0379933"><ele>171.57142857142856</ele><time>2026-05-03T10:52:54.669Z</time></trkpt><trkpt lat="37.5074083" lon="15.0379167"><ele>174.2857142857143</ele><time>2026-05-03T10:52:55.669Z</time></trkpt><trkpt lat="37.5074133" lon="15.0378333"><ele>177.0</ele><time>2026-05-03T10:52:56.669Z</time></trkpt><trkpt lat="37.50741" lon="15.0377383"><ele>177.0</ele><time>2026-05-03T10:52:57.668Z</time></trkpt><trkpt lat="37.5074" lon="15.0376367"><ele>177.0</ele><time>2026-05-03T10:52:58.669Z</time></trkpt><trkpt lat="37.5073767" lon="15.0375283"><ele>177.0</ele><time>2026-05-03T10:52:59.673Z</time></trkpt><trkpt lat="37.5073467" lon="15.0374283"><ele>177.0</ele><time>2026-05-03T10:53:00.673Z</time></trkpt><trkpt lat="37.507315" lon="15.0373417"><ele>177.0</ele><time>2026-05-03T10:53:01.673Z</time></trkpt><trkpt lat="37.5072583" lon="15.0372183"><ele>177.0</ele><time>2026-05-03T10:53:03.676Z</time></trkpt><trkpt lat="37.507165" lon="15.0371433"><ele>177.0</ele><time>2026-05-03T10:53:05.669Z</time></trkpt><trkpt lat="37.5070733" lon="15.0370733"><ele>177.0</ele><time>2026-05-03T10:53:07.67Z</time></trkpt><trkpt lat="37.5069933" lon="15.0369767"><ele>177.0</ele><time>2026-05-03T10:53:09.669Z</time></trkpt><trkpt lat="37.506925" lon="15.0368367"><ele>177.0</ele><time>2026-05-03T10:53:11.673Z</time></trkpt><trkpt lat="37.50689" lon="15.0367617"><ele>177.0</ele><time>2026-05-03T10:53:12.672Z</time></trkpt><trkpt lat="37.5068517" lon="15.0366883"><ele>179.8</ele><time>2026-05-03T10:53:13.672Z</time></trkpt><trkpt lat="37.5068117" lon="15.036625"><ele>182.6</ele><time>2026-05-03T10:53:14.674Z</time></trkpt><trkpt lat="37.5067217" lon="15.0365183"><ele>185.4</ele><time>2026-05-03T10:53:16.673Z</time></trkpt><trkpt lat="37.506615" lon="15.0364483"><ele>188.20000000000002</ele><time>2026-05-03T10:53:18.669Z</time></trkpt><trkpt lat="37.5065067" lon="15.0364283"><ele>191.0</ele><time>2026-05-03T10:53:20.67Z</time></trkpt><trkpt lat="37.506425" lon="15.0364133"><ele>191.0</ele><time>2026-05-03T10:53:22.669Z</time></trkpt></trkseg></trk></gpx>